Terminal Aerodrome Forecast
Issued by NWS

Home | Current Version | Previous Version | Text Only | Print | Product List | Glossary Off
Versions: 1 2 3 4 5 6 7 8 9 10 11 12 13 14 15 16 17 18 19 20

026
FTUS43 KABR 252337
TAFMBG
TAF
KMBG 252337Z 2600/2624 34011KT P6SM OVC015
     FM260500 36007KT P6SM OVC009
     FM260900 01007KT 5SM BR OVC003
     FM261400 04009KT P6SM OVC007
     FM261800 06012KT P6SM OVC015
     FM262200 06014KT P6SM VCSH OVC015=

USA.gov is the U.S. government's official web portal to all federal, state and local government web resources and services.